sensor_id;sensor_type;location;lat;lon;timestamp;P1;durP1;ratioP1;P2;durP2;ratioP2
74465;SDS011;62916;50.044;15.938;2023-03-01T00:00:46;2.00;;;1.80;;
74465;SDS011;62916;50.044;15.938;2023-03-01T00:03:17;3.10;;;2.50;;
74465;SDS011;62916;50.044;15.938;2023-03-01T00:05:48;2.90;;;2.20;;
74465;SDS011;62916;50.044;15.938;2023-03-01T00:08:19;2.40;;;1.90;;
74465;SDS011;62916;50.044;15.938;2023-03-01T00:10:49;2.50;;;1.90;;
74465;SDS011;62916;50.044;15.938;2023-03-01T00:13:30;2.80;;;2.10;;
74465;SDS011;62916;50.044;15.938;2023-03-01T00:16:03;2.30;;;2.10;;
74465;SDS011;62916;50.044;15.938;2023-03-01T00:18:37;2.40;;;1.90;;
74465;SDS011;62916;50.044;15.938;2023-03-01T00:21:08;2.70;;;2.40;;
74465;SDS011;62916;50.044;15.938;2023-03-01T00:23:39;2.00;;;1.80;;
74465;SDS011;62916;50.044;15.938;2023-03-01T00:26:12;3.20;;;1.90;;
74465;SDS011;62916;50.044;15.938;2023-03-01T00:28:43;2.70;;;1.80;;
74465;SDS011;62916;50.044;15.938;2023-03-01T00:31:15;2.60;;;1.90;;
74465;SDS011;62916;50.044;15.938;2023-03-01T00:33:48;2.60;;;1.90;;
74465;SDS011;62916;50.044;15.938;2023-03-01T00:36:21;3.10;;;2.20;;
74465;SDS011;62916;50.044;15.938;2023-03-01T00:38:53;2.90;;;2.60;;
74465;SDS011;62916;50.044;15.938;2023-03-01T00:41:24;3.80;;;2.50;;
74465;SDS011;62916;50.044;15.938;2023-03-01T00:43:55;2.60;;;2.40;;
74465;SDS011;62916;50.044;15.938;2023-03-01T00:46:26;3.20;;;2.20;;
74465;SDS011;62916;50.044;15.938;2023-03-01T00:48:58;2.80;;;2.10;;
74465;SDS011;62916;50.044;15.938;2023-03-01T00:51:30;3.00;;;2.10;;
74465;SDS011;62916;50.044;15.938;2023-03-01T00:54:01;3.00;;;1.90;;
74465;SDS011;62916;50.044;15.938;2023-03-01T00:56:32;2.30;;;2.10;;
74465;SDS011;62916;50.044;15.938;2023-03-01T00:59:03;2.80;;;2.40;;
74465;SDS011;62916;50.044;15.938;2023-03-01T01:01:34;2.50;;;2.00;;
74465;SDS011;62916;50.044;15.938;2023-03-01T01:04:06;3.50;;;2.00;;
74465;SDS011;62916;50.044;15.938;2023-03-01T01:06:39;2.30;;;2.00;;
74465;SDS011;62916;50.044;15.938;2023-03-01T01:09:12;3.30;;;2.40;;
74465;SDS011;62916;50.044;15.938;2023-03-01T01:11:46;2.70;;;2.00;;
74465;SDS011;62916;50.044;15.938;2023-03-01T01:14:18;2.80;;;2.10;;
74465;SDS011;62916;50.044;15.938;2023-03-01T01:16:49;3.10;;;2.40;;
74465;SDS011;62916;50.044;15.938;2023-03-01T01:19:20;2.40;;;1.80;;
74465;SDS011;62916;50.044;15.938;2023-03-01T01:21:51;3.80;;;1.90;;
74465;SDS011;62916;50.044;15.938;2023-03-01T01:24:22;2.70;;;2.30;;
74465;SDS011;62916;50.044;15.938;2023-03-01T01:26:53;3.00;;;2.30;;
74465;SDS011;62916;50.044;15.938;2023-03-01T01:29:23;2.90;;;2.10;;
74465;SDS011;62916;50.044;15.938;2023-03-01T01:31:54;3.10;;;2.40;;
74465;SDS011;62916;50.044;15.938;2023-03-01T01:34:25;3.90;;;2.00;;
74465;SDS011;62916;50.044;15.938;2023-03-01T01:36:56;2.70;;;2.10;;
74465;SDS011;62916;50.044;15.938;2023-03-01T01:39:30;2.50;;;2.30;;
74465;SDS011;62916;50.044;15.938;2023-03-01T01:42:01;2.50;;;2.00;;
74465;SDS011;62916;50.044;15.938;2023-03-01T01:44:33;2.80;;;2.10;;
74465;SDS011;62916;50.044;15.938;2023-03-01T01:47:05;2.70;;;2.10;;
74465;SDS011;62916;50.044;15.938;2023-03-01T01:49:42;2.80;;;2.30;;
74465;SDS011;62916;50.044;15.938;2023-03-01T01:52:18;3.20;;;2.50;;
74465;SDS011;62916;50.044;15.938;2023-03-01T01:54:53;3.10;;;2.10;;
74465;SDS011;62916;50.044;15.938;2023-03-01T01:57:32;2.60;;;2.30;;
74465;SDS011;62916;50.044;15.938;2023-03-01T02:00:08;2.90;;;2.20;;
74465;SDS011;62916;50.044;15.938;2023-03-01T02:02:41;2.90;;;2.60;;
74465;SDS011;62916;50.044;15.938;2023-03-01T02:05:15;2.80;;;1.90;;
74465;SDS011;62916;50.044;15.938;2023-03-01T02:07:51;2.60;;;2.10;;
74465;SDS011;62916;50.044;15.938;2023-03-01T02:10:22;3.40;;;2.70;;
74465;SDS011;62916;50.044;15.938;2023-03-01T02:12:54;2.60;;;2.20;;
74465;SDS011;62916;50.044;15.938;2023-03-01T02:15:26;3.00;;;2.30;;
74465;SDS011;62916;50.044;15.938;2023-03-01T02:20:32;3.10;;;2.00;;
74465;SDS011;62916;50.044;15.938;2023-03-01T02:23:09;3.90;;;2.70;;
74465;SDS011;62916;50.044;15.938;2023-03-01T02:25:41;3.10;;;2.80;;
74465;SDS011;62916;50.044;15.938;2023-03-01T02:28:27;2.40;;;1.90;;
74465;SDS011;62916;50.044;15.938;2023-03-01T02:31:01;3.00;;;2.20;;
74465;SDS011;62916;50.044;15.938;2023-03-01T02:33:51;2.40;;;2.20;;
74465;SDS011;62916;50.044;15.938;2023-03-01T02:36:24;2.90;;;2.10;;
74465;SDS011;62916;50.044;15.938;2023-03-01T02:38:58;3.10;;;2.30;;
74465;SDS011;62916;50.044;15.938;2023-03-01T02:41:36;2.60;;;2.10;;
74465;SDS011;62916;50.044;15.938;2023-03-01T02:44:08;2.90;;;2.60;;
74465;SDS011;62916;50.044;15.938;2023-03-01T02:46:43;3.10;;;2.30;;
74465;SDS011;62916;50.044;15.938;2023-03-01T02:49:23;3.30;;;2.10;;
74465;SDS011;62916;50.044;15.938;2023-03-01T02:52:11;3.00;;;2.60;;
74465;SDS011;62916;50.044;15.938;2023-03-01T02:54:52;3.90;;;2.30;;
74465;SDS011;62916;50.044;15.938;2023-03-01T02:57:28;2.80;;;1.90;;
74465;SDS011;62916;50.044;15.938;2023-03-01T03:00:02;2.40;;;2.20;;
74465;SDS011;62916;50.044;15.938;2023-03-01T03:02:35;3.30;;;2.10;;
74465;SDS011;62916;50.044;15.938;2023-03-01T03:05:10;2.80;;;2.30;;
74465;SDS011;62916;50.044;15.938;2023-03-01T03:07:43;2.70;;;2.00;;
74465;SDS011;62916;50.044;15.938;2023-03-01T03:10:16;2.70;;;2.10;;
74465;SDS011;62916;50.044;15.938;2023-03-01T03:12:50;2.80;;;2.10;;
74465;SDS011;62916;50.044;15.938;2023-03-01T03:15:22;2.80;;;2.10;;
74465;SDS011;62916;50.044;15.938;2023-03-01T03:17:54;2.70;;;2.20;;
74465;SDS011;62916;50.044;15.938;2023-03-01T03:20:26;3.50;;;2.50;;
74465;SDS011;62916;50.044;15.938;2023-03-01T03:22:57;3.40;;;2.50;;
74465;SDS011;62916;50.044;15.938;2023-03-01T03:25:28;2.70;;;2.00;;
74465;SDS011;62916;50.044;15.938;2023-03-01T03:27:59;2.50;;;1.90;;
74465;SDS011;62916;50.044;15.938;2023-03-01T03:30:30;2.70;;;2.10;;
74465;SDS011;62916;50.044;15.938;2023-03-01T03:33:02;3.00;;;2.20;;
74465;SDS011;62916;50.044;15.938;2023-03-01T03:35:37;2.40;;;2.20;;
74465;SDS011;62916;50.044;15.938;2023-03-01T03:38:11;3.70;;;2.40;;
74465;SDS011;62916;50.044;15.938;2023-03-01T03:40:47;3.10;;;2.50;;
74465;SDS011;62916;50.044;15.938;2023-03-01T03:43:19;2.70;;;2.20;;
74465;SDS011;62916;50.044;15.938;2023-03-01T03:45:51;3.10;;;2.00;;
74465;SDS011;62916;50.044;15.938;2023-03-01T03:48:25;3.00;;;2.20;;
74465;SDS011;62916;50.044;15.938;2023-03-01T03:50:56;3.60;;;2.00;;
74465;SDS011;62916;50.044;15.938;2023-03-01T03:53:27;2.40;;;2.00;;
74465;SDS011;62916;50.044;15.938;2023-03-01T03:55:58;2.60;;;2.20;;
74465;SDS011;62916;50.044;15.938;2023-03-01T03:58:29;2.60;;;2.10;;
74465;SDS011;62916;50.044;15.938;2023-03-01T04:01:00;2.90;;;2.50;;
74465;SDS011;62916;50.044;15.938;2023-03-01T04:03:31;3.70;;;2.40;;
74465;SDS011;62916;50.044;15.938;2023-03-01T04:06:03;4.10;;;3.00;;
74465;SDS011;62916;50.044;15.938;2023-03-01T04:08:34;2.40;;;2.00;;
74465;SDS011;62916;50.044;15.938;2023-03-01T04:11:05;2.80;;;2.40;;
74465;SDS011;62916;50.044;15.938;2023-03-01T04:13:50;3.40;;;2.40;;
74465;SDS011;62916;50.044;15.938;2023-03-01T04:16:22;3.00;;;2.20;;
74465;SDS011;62916;50.044;15.938;2023-03-01T04:18:53;2.80;;;2.40;;
74465;SDS011;62916;50.044;15.938;2023-03-01T04:21:27;3.20;;;2.90;;
74465;SDS011;62916;50.044;15.938;2023-03-01T04:23:58;3.00;;;2.50;;
74465;SDS011;62916;50.044;15.938;2023-03-01T04:26:31;3.20;;;2.60;;
74465;SDS011;62916;50.044;15.938;2023-03-01T04:29:02;3.10;;;2.40;;
74465;SDS011;62916;50.044;15.938;2023-03-01T04:31:33;3.50;;;2.80;;
74465;SDS011;62916;50.044;15.938;2023-03-01T04:34:03;3.10;;;2.50;;
74465;SDS011;62916;50.044;15.938;2023-03-01T04:36:34;3.10;;;2.20;;
74465;SDS011;62916;50.044;15.938;2023-03-01T04:39:05;3.10;;;2.30;;
74465;SDS011;62916;50.044;15.938;2023-03-01T04:41:40;3.60;;;2.50;;
74465;SDS011;62916;50.044;15.938;2023-03-01T04:44:12;6.70;;;4.10;;
74465;SDS011;62916;50.044;15.938;2023-03-01T04:46:42;5.10;;;3.20;;
74465;SDS011;62916;50.044;15.938;2023-03-01T04:49:13;3.80;;;3.20;;
74465;SDS011;62916;50.044;15.938;2023-03-01T04:51:44;3.60;;;2.80;;
74465;SDS011;62916;50.044;15.938;2023-03-01T04:54:15;4.50;;;2.90;;
74465;SDS011;62916;50.044;15.938;2023-03-01T04:56:46;4.10;;;2.90;;
74465;SDS011;62916;50.044;15.938;2023-03-01T04:59:16;4.10;;;3.40;;
74465;SDS011;62916;50.044;15.938;2023-03-01T05:01:50;3.30;;;2.50;;
74465;SDS011;62916;50.044;15.938;2023-03-01T05:04:23;4.70;;;3.10;;
74465;SDS011;62916;50.044;15.938;2023-03-01T05:06:54;3.70;;;2.80;;
74465;SDS011;62916;50.044;15.938;2023-03-01T05:09:26;6.30;;;3.10;;
74465;SDS011;62916;50.044;15.938;2023-03-01T05:11:57;4.30;;;3.10;;
74465;SDS011;62916;50.044;15.938;2023-03-01T05:14:28;6.00;;;3.20;;
74465;SDS011;62916;50.044;15.938;2023-03-01T05:16:59;5.10;;;3.00;;
74465;SDS011;62916;50.044;15.938;2023-03-01T05:19:32;4.80;;;2.90;;
74465;SDS011;62916;50.044;15.938;2023-03-01T05:22:03;6.10;;;2.70;;
74465;SDS011;62916;50.044;15.938;2023-03-01T05:24:34;5.30;;;4.10;;
74465;SDS011;62916;50.044;15.938;2023-03-01T05:27:06;5.60;;;3.10;;
74465;SDS011;62916;50.044;15.938;2023-03-01T05:29:37;10.50;;;3.90;;
74465;SDS011;62916;50.044;15.938;2023-03-01T05:32:08;18.40;;;4.50;;
74465;SDS011;62916;50.044;15.938;2023-03-01T05:34:43;17.70;;;4.20;;
74465;SDS011;62916;50.044;15.938;2023-03-01T05:37:14;18.90;;;4.10;;
74465;SDS011;62916;50.044;15.938;2023-03-01T05:39:45;17.10;;;5.30;;
74465;SDS011;62916;50.044;15.938;2023-03-01T05:42:18;17.30;;;4.50;;
74465;SDS011;62916;50.044;15.938;2023-03-01T05:44:49;12.20;;;3.40;;
74465;SDS011;62916;50.044;15.938;2023-03-01T05:47:19;16.50;;;3.90;;
74465;SDS011;62916;50.044;15.938;2023-03-01T05:49:50;13.20;;;4.00;;
74465;SDS011;62916;50.044;15.938;2023-03-01T05:52:23;10.60;;;3.20;;
74465;SDS011;62916;50.044;15.938;2023-03-01T05:54:54;10.70;;;3.60;;
74465;SDS011;62916;50.044;15.938;2023-03-01T05:57:25;14.20;;;3.80;;
74465;SDS011;62916;50.044;15.938;2023-03-01T05:59:58;12.50;;;3.30;;
74465;SDS011;62916;50.044;15.938;2023-03-01T06:02:29;9.10;;;3.40;;
74465;SDS011;62916;50.044;15.938;2023-03-01T06:05:00;11.20;;;3.90;;
74465;SDS011;62916;50.044;15.938;2023-03-01T06:07:31;10.70;;;3.20;;
74465;SDS011;62916;50.044;15.938;2023-03-01T06:10:03;12.30;;;3.40;;
74465;SDS011;62916;50.044;15.938;2023-03-01T06:12:38;11.70;;;3.70;;
74465;SDS011;62916;50.044;15.938;2023-03-01T06:15:12;13.30;;;3.90;;
74465;SDS011;62916;50.044;15.938;2023-03-01T06:17:45;13.70;;;3.60;;
74465;SDS011;62916;50.044;15.938;2023-03-01T06:20:18;14.50;;;3.70;;
74465;SDS011;62916;50.044;15.938;2023-03-01T06:22:51;6.40;;;3.00;;
74465;SDS011;62916;50.044;15.938;2023-03-01T06:25:22;8.70;;;3.40;;
74465;SDS011;62916;50.044;15.938;2023-03-01T06:27:55;7.20;;;3.40;;
74465;SDS011;62916;50.044;15.938;2023-03-01T06:30:26;6.40;;;3.00;;
74465;SDS011;62916;50.044;15.938;2023-03-01T06:32:57;9.80;;;3.50;;
74465;SDS011;62916;50.044;15.938;2023-03-01T06:35:29;9.70;;;3.10;;
74465;SDS011;62916;50.044;15.938;2023-03-01T06:38:01;11.40;;;3.50;;
74465;SDS011;62916;50.044;15.938;2023-03-01T06:40:34;7.20;;;3.20;;
74465;SDS011;62916;50.044;15.938;2023-03-01T06:43:05;8.30;;;3.20;;
74465;SDS011;62916;50.044;15.938;2023-03-01T06:45:36;7.90;;;3.30;;
74465;SDS011;62916;50.044;15.938;2023-03-01T06:48:07;6.40;;;2.80;;
74465;SDS011;62916;50.044;15.938;2023-03-01T06:50:38;5.90;;;3.50;;
74465;SDS011;62916;50.044;15.938;2023-03-01T06:53:09;8.30;;;3.10;;
74465;SDS011;62916;50.044;15.938;2023-03-01T06:55:40;9.10;;;3.20;;
74465;SDS011;62916;50.044;15.938;2023-03-01T06:58:11;6.90;;;3.30;;
74465;SDS011;62916;50.044;15.938;2023-03-01T07:00:41;6.20;;;3.50;;
74465;SDS011;62916;50.044;15.938;2023-03-01T07:03:14;5.70;;;2.90;;
74465;SDS011;62916;50.044;15.938;2023-03-01T07:05:45;6.40;;;3.50;;
74465;SDS011;62916;50.044;15.938;2023-03-01T07:08:20;5.90;;;3.20;;
74465;SDS011;62916;50.044;15.938;2023-03-01T07:10:55;4.80;;;2.60;;
74465;SDS011;62916;50.044;15.938;2023-03-01T07:13:26;6.60;;;3.10;;
74465;SDS011;62916;50.044;15.938;2023-03-01T07:15:57;8.00;;;3.00;;
74465;SDS011;62916;50.044;15.938;2023-03-01T07:18:28;6.90;;;3.30;;
74465;SDS011;62916;50.044;15.938;2023-03-01T07:20:59;6.60;;;2.80;;
74465;SDS011;62916;50.044;15.938;2023-03-01T07:23:34;6.40;;;2.80;;
74465;SDS011;62916;50.044;15.938;2023-03-01T07:26:05;6.80;;;2.90;;
74465;SDS011;62916;50.044;15.938;2023-03-01T07:28:36;5.30;;;3.40;;
74465;SDS011;62916;50.044;15.938;2023-03-01T07:31:07;6.80;;;2.90;;
74465;SDS011;62916;50.044;15.938;2023-03-01T07:33:37;6.00;;;2.90;;
74465;SDS011;62916;50.044;15.938;2023-03-01T07:36:09;6.30;;;3.70;;
74465;SDS011;62916;50.044;15.938;2023-03-01T07:38:40;6.10;;;3.10;;
74465;SDS011;62916;50.044;15.938;2023-03-01T07:41:10;6.10;;;3.00;;
74465;SDS011;62916;50.044;15.938;2023-03-01T07:43:42;5.20;;;3.50;;
74465;SDS011;62916;50.044;15.938;2023-03-01T07:46:12;6.00;;;2.90;;
74465;SDS011;62916;50.044;15.938;2023-03-01T07:48:43;5.20;;;3.00;;
74465;SDS011;62916;50.044;15.938;2023-03-01T07:51:14;8.60;;;3.50;;
74465;SDS011;62916;50.044;15.938;2023-03-01T07:53:48;5.40;;;2.90;;
74465;SDS011;62916;50.044;15.938;2023-03-01T07:56:18;5.50;;;2.70;;
74465;SDS011;62916;50.044;15.938;2023-03-01T07:58:49;6.60;;;3.10;;
74465;SDS011;62916;50.044;15.938;2023-03-01T08:01:21;4.30;;;2.70;;
74465;SDS011;62916;50.044;15.938;2023-03-01T08:03:52;4.40;;;3.00;;
74465;SDS011;62916;50.044;15.938;2023-03-01T08:06:23;5.30;;;2.90;;
74465;SDS011;62916;50.044;15.938;2023-03-01T08:08:53;6.10;;;2.80;;
74465;SDS011;62916;50.044;15.938;2023-03-01T08:11:26;7.00;;;2.70;;
74465;SDS011;62916;50.044;15.938;2023-03-01T08:13:59;5.30;;;3.00;;
74465;SDS011;62916;50.044;15.938;2023-03-01T08:16:30;3.80;;;2.50;;
74465;SDS011;62916;50.044;15.938;2023-03-01T08:19:05;5.70;;;3.10;;
74465;SDS011;62916;50.044;15.938;2023-03-01T08:21:36;3.90;;;2.90;;
74465;SDS011;62916;50.044;15.938;2023-03-01T08:24:07;6.60;;;3.10;;
74465;SDS011;62916;50.044;15.938;2023-03-01T08:26:39;5.10;;;3.40;;
74465;SDS011;62916;50.044;15.938;2023-03-01T08:29:10;4.50;;;2.70;;
74465;SDS011;62916;50.044;15.938;2023-03-01T08:31:40;4.40;;;2.60;;
74465;SDS011;62916;50.044;15.938;2023-03-01T08:34:12;5.00;;;2.70;;
74465;SDS011;62916;50.044;15.938;2023-03-01T08:36:44;4.70;;;2.90;;
74465;SDS011;62916;50.044;15.938;2023-03-01T08:39:18;5.00;;;2.80;;
74465;SDS011;62916;50.044;15.938;2023-03-01T08:41:49;6.30;;;3.40;;
74465;SDS011;62916;50.044;15.938;2023-03-01T08:44:20;4.60;;;2.60;;
74465;SDS011;62916;50.044;15.938;2023-03-01T08:46:51;4.30;;;2.90;;
74465;SDS011;62916;50.044;15.938;2023-03-01T08:49:23;3.90;;;2.40;;
74465;SDS011;62916;50.044;15.938;2023-03-01T08:51:54;4.80;;;2.40;;
74465;SDS011;62916;50.044;15.938;2023-03-01T08:54:25;3.40;;;2.40;;
74465;SDS011;62916;50.044;15.938;2023-03-01T08:56:56;4.00;;;3.20;;
74465;SDS011;62916;50.044;15.938;2023-03-01T08:59:27;4.80;;;2.70;;
74465;SDS011;62916;50.044;15.938;2023-03-01T09:02:03;5.10;;;2.70;;
74465;SDS011;62916;50.044;15.938;2023-03-01T09:04:37;5.30;;;2.60;;
74465;SDS011;62916;50.044;15.938;2023-03-01T09:07:10;4.60;;;2.80;;
74465;SDS011;62916;50.044;15.938;2023-03-01T09:09:41;4.20;;;2.90;;
74465;SDS011;62916;50.044;15.938;2023-03-01T09:12:12;6.10;;;3.60;;
74465;SDS011;62916;50.044;15.938;2023-03-01T09:14:42;5.40;;;2.50;;
74465;SDS011;62916;50.044;15.938;2023-03-01T09:17:13;4.50;;;2.70;;
74465;SDS011;62916;50.044;15.938;2023-03-01T09:19:44;4.30;;;2.60;;
74465;SDS011;62916;50.044;15.938;2023-03-01T09:22:15;3.80;;;2.60;;
74465;SDS011;62916;50.044;15.938;2023-03-01T09:24:46;3.90;;;2.70;;
74465;SDS011;62916;50.044;15.938;2023-03-01T09:27:17;3.50;;;2.30;;
74465;SDS011;62916;50.044;15.938;2023-03-01T09:29:48;4.10;;;2.40;;
74465;SDS011;62916;50.044;15.938;2023-03-01T09:32:19;4.40;;;2.50;;
74465;SDS011;62916;50.044;15.938;2023-03-01T09:34:50;4.60;;;2.60;;
74465;SDS011;62916;50.044;15.938;2023-03-01T09:37:33;3.30;;;2.20;;
74465;SDS011;62916;50.044;15.938;2023-03-01T09:40:06;5.60;;;2.60;;
74465;SDS011;62916;50.044;15.938;2023-03-01T09:42:47;4.50;;;2.60;;
74465;SDS011;62916;50.044;15.938;2023-03-01T09:45:29;3.20;;;2.20;;
74465;SDS011;62916;50.044;15.938;2023-03-01T09:48:04;4.10;;;2.60;;
74465;SDS011;62916;50.044;15.938;2023-03-01T09:50:44;3.60;;;2.90;;
74465;SDS011;62916;50.044;15.938;2023-03-01T09:53:15;4.30;;;2.50;;
74465;SDS011;62916;50.044;15.938;2023-03-01T09:55:50;3.50;;;2.30;;
74465;SDS011;62916;50.044;15.938;2023-03-01T09:58:37;4.60;;;2.60;;
74465;SDS011;62916;50.044;15.938;2023-03-01T10:01:28;4.20;;;2.50;;
74465;SDS011;62916;50.044;15.938;2023-03-01T10:07:12;3.90;;;2.50;;
74465;SDS011;62916;50.044;15.938;2023-03-01T10:09:50;3.60;;;2.40;;
74465;SDS011;62916;50.044;15.938;2023-03-01T10:12:22;5.40;;;3.20;;
74465;SDS011;62916;50.044;15.938;2023-03-01T10:14:57;4.40;;;2.60;;
74465;SDS011;62916;50.044;15.938;2023-03-01T10:17:34;3.20;;;2.20;;
74465;SDS011;62916;50.044;15.938;2023-03-01T10:20:14;4.70;;;2.60;;
74465;SDS011;62916;50.044;15.938;2023-03-01T10:22:48;4.40;;;2.40;;
74465;SDS011;62916;50.044;15.938;2023-03-01T10:25:23;3.40;;;2.10;;
74465;SDS011;62916;50.044;15.938;2023-03-01T10:28:13;3.60;;;2.70;;
74465;SDS011;62916;50.044;15.938;2023-03-01T10:30:48;4.00;;;2.40;;
74465;SDS011;62916;50.044;15.938;2023-03-01T10:33:20;3.70;;;2.70;;
74465;SDS011;62916;50.044;15.938;2023-03-01T10:35:54;3.30;;;2.30;;
74465;SDS011;62916;50.044;15.938;2023-03-01T10:38:25;4.10;;;2.50;;
74465;SDS011;62916;50.044;15.938;2023-03-01T10:40:59;3.70;;;2.70;;
74465;SDS011;62916;50.044;15.938;2023-03-01T10:43:43;2.60;;;2.20;;
74465;SDS011;62916;50.044;15.938;2023-03-01T10:46:26;3.20;;;2.80;;
74465;SDS011;62916;50.044;15.938;2023-03-01T10:49:12;4.60;;;2.40;;
74465;SDS011;62916;50.044;15.938;2023-03-01T10:51:46;3.40;;;2.20;;
74465;SDS011;62916;50.044;15.938;2023-03-01T10:54:27;4.70;;;2.70;;
74465;SDS011;62916;50.044;15.938;2023-03-01T10:57:01;3.50;;;2.50;;
74465;SDS011;62916;50.044;15.938;2023-03-01T10:59:34;2.90;;;2.20;;
74465;SDS011;62916;50.044;15.938;2023-03-01T11:04:58;3.50;;;2.40;;
74465;SDS011;62916;50.044;15.938;2023-03-01T11:07:30;4.10;;;2.50;;
74465;SDS011;62916;50.044;15.938;2023-03-01T11:10:17;3.90;;;2.60;;
74465;SDS011;62916;50.044;15.938;2023-03-01T11:12:49;2.40;;;2.10;;
74465;SDS011;62916;50.044;15.938;2023-03-01T11:15:23;3.50;;;2.60;;
74465;SDS011;62916;50.044;15.938;2023-03-01T11:17:56;3.40;;;2.20;;
74465;SDS011;62916;50.044;15.938;2023-03-01T11:20:40;2.80;;;2.20;;
74465;SDS011;62916;50.044;15.938;2023-03-01T11:23:12;3.00;;;2.10;;
74465;SDS011;62916;50.044;15.938;2023-03-01T11:25:46;3.70;;;2.40;;
74465;SDS011;62916;50.044;15.938;2023-03-01T11:28:23;3.50;;;2.40;;
74465;SDS011;62916;50.044;15.938;2023-03-01T11:36:13;3.20;;;1.90;;
74465;SDS011;62916;50.044;15.938;2023-03-01T11:38:53;3.40;;;2.40;;
74465;SDS011;62916;50.044;15.938;2023-03-01T11:41:28;3.50;;;2.30;;
74465;SDS011;62916;50.044;15.938;2023-03-01T11:44:03;2.80;;;2.10;;
74465;SDS011;62916;50.044;15.938;2023-03-01T11:46:46;2.90;;;2.40;;
74465;SDS011;62916;50.044;15.938;2023-03-01T11:49:36;3.40;;;2.00;;
74465;SDS011;62916;50.044;15.938;2023-03-01T11:52:22;2.50;;;2.20;;
74465;SDS011;62916;50.044;15.938;2023-03-01T11:55:07;3.20;;;2.20;;
74465;SDS011;62916;50.044;15.938;2023-03-01T11:57:49;3.20;;;2.00;;
74465;SDS011;62916;50.044;15.938;2023-03-01T12:00:36;3.60;;;2.20;;
74465;SDS011;62916;50.044;15.938;2023-03-01T12:03:25;5.00;;;2.20;;
74465;SDS011;62916;50.044;15.938;2023-03-01T12:08:45;3.20;;;2.50;;
74465;SDS011;62916;50.044;15.938;2023-03-01T12:11:22;3.20;;;2.40;;
74465;SDS011;62916;50.044;15.938;2023-03-01T12:14:15;3.90;;;2.60;;
74465;SDS011;62916;50.044;15.938;2023-03-01T12:20:02;3.40;;;2.10;;
74465;SDS011;62916;50.044;15.938;2023-03-01T12:22:46;3.50;;;2.40;;
74465;SDS011;62916;50.044;15.938;2023-03-01T12:25:46;2.90;;;2.40;;
74465;SDS011;62916;50.044;15.938;2023-03-01T12:34:11;2.80;;;2.40;;
74465;SDS011;62916;50.044;15.938;2023-03-01T12:36:57;2.70;;;2.00;;
74465;SDS011;62916;50.044;15.938;2023-03-01T12:39:42;3.10;;;2.20;;
74465;SDS011;62916;50.044;15.938;2023-03-01T12:42:26;4.30;;;2.60;;
74465;SDS011;62916;50.044;15.938;2023-03-01T12:47:58;2.90;;;2.10;;
74465;SDS011;62916;50.044;15.938;2023-03-01T12:50:43;4.30;;;3.10;;
74465;SDS011;62916;50.044;15.938;2023-03-01T12:53:23;3.80;;;2.40;;
74465;SDS011;62916;50.044;15.938;2023-03-01T12:55:58;3.80;;;2.40;;
74465;SDS011;62916;50.044;15.938;2023-03-01T12:58:34;3.10;;;2.40;;
74465;SDS011;62916;50.044;15.938;2023-03-01T13:01:22;4.10;;;2.20;;
74465;SDS011;62916;50.044;15.938;2023-03-01T13:06:57;3.50;;;2.30;;
74465;SDS011;62916;50.044;15.938;2023-03-01T13:09:39;4.40;;;2.70;;
74465;SDS011;62916;50.044;15.938;2023-03-01T13:15:29;4.90;;;2.70;;
74465;SDS011;62916;50.044;15.938;2023-03-01T13:18:02;2.60;;;2.30;;
74465;SDS011;62916;50.044;15.938;2023-03-01T13:20:56;4.20;;;2.40;;
74465;SDS011;62916;50.044;15.938;2023-03-01T13:23:29;3.80;;;2.50;;
74465;SDS011;62916;50.044;15.938;2023-03-01T13:26:07;3.70;;;2.20;;
74465;SDS011;62916;50.044;15.938;2023-03-01T13:28:55;3.50;;;2.30;;
74465;SDS011;62916;50.044;15.938;2023-03-01T13:34:41;3.50;;;2.20;;
74465;SDS011;62916;50.044;15.938;2023-03-01T13:37:26;3.70;;;2.70;;
74465;SDS011;62916;50.044;15.938;2023-03-01T13:43:30;3.70;;;2.60;;
74465;SDS011;62916;50.044;15.938;2023-03-01T13:46:02;3.50;;;2.50;;
74465;SDS011;62916;50.044;15.938;2023-03-01T13:48:40;3.90;;;2.60;;
74465;SDS011;62916;50.044;15.938;2023-03-01T13:51:13;4.10;;;2.60;;
74465;SDS011;62916;50.044;15.938;2023-03-01T13:53:45;4.00;;;2.50;;
74465;SDS011;62916;50.044;15.938;2023-03-01T13:56:17;3.30;;;2.20;;
74465;SDS011;62916;50.044;15.938;2023-03-01T13:58:53;3.50;;;2.20;;
74465;SDS011;62916;50.044;15.938;2023-03-01T14:01:29;3.60;;;2.40;;
74465;SDS011;62916;50.044;15.938;2023-03-01T14:04:02;4.10;;;2.60;;
74465;SDS011;62916;50.044;15.938;2023-03-01T14:09:18;2.90;;;2.40;;
74465;SDS011;62916;50.044;15.938;2023-03-01T14:12:10;4.20;;;2.50;;
74465;SDS011;62916;50.044;15.938;2023-03-01T14:14:56;3.20;;;2.90;;
74465;SDS011;62916;50.044;15.938;2023-03-01T14:17:46;3.90;;;2.40;;
74465;SDS011;62916;50.044;15.938;2023-03-01T14:20:24;3.40;;;2.30;;
74465;SDS011;62916;50.044;15.938;2023-03-01T14:22:58;3.00;;;2.70;;
74465;SDS011;62916;50.044;15.938;2023-03-01T14:25:32;4.20;;;2.70;;
74465;SDS011;62916;50.044;15.938;2023-03-01T14:28:11;4.10;;;2.50;;
74465;SDS011;62916;50.044;15.938;2023-03-01T14:30:46;4.30;;;2.50;;
74465;SDS011;62916;50.044;15.938;2023-03-01T14:33:20;4.20;;;2.50;;
74465;SDS011;62916;50.044;15.938;2023-03-01T14:35:53;2.70;;;2.10;;
74465;SDS011;62916;50.044;15.938;2023-03-01T14:38:31;4.10;;;2.50;;
74465;SDS011;62916;50.044;15.938;2023-03-01T14:41:05;2.80;;;2.30;;
74465;SDS011;62916;50.044;15.938;2023-03-01T14:46:17;3.50;;;2.40;;
74465;SDS011;62916;50.044;15.938;2023-03-01T14:48:53;3.50;;;2.50;;
74465;SDS011;62916;50.044;15.938;2023-03-01T14:51:26;3.80;;;2.50;;
74465;SDS011;62916;50.044;15.938;2023-03-01T14:53:57;4.40;;;2.70;;
74465;SDS011;62916;50.044;15.938;2023-03-01T14:56:28;3.50;;;2.40;;
74465;SDS011;62916;50.044;15.938;2023-03-01T14:59:14;3.50;;;2.10;;
74465;SDS011;62916;50.044;15.938;2023-03-01T15:01:47;4.60;;;2.70;;
74465;SDS011;62916;50.044;15.938;2023-03-01T15:04:19;3.40;;;2.40;;
74465;SDS011;62916;50.044;15.938;2023-03-01T15:06:52;4.70;;;2.50;;
74465;SDS011;62916;50.044;15.938;2023-03-01T15:09:24;3.70;;;2.70;;
74465;SDS011;62916;50.044;15.938;2023-03-01T15:11:55;4.20;;;2.80;;
74465;SDS011;62916;50.044;15.938;2023-03-01T15:14:27;3.20;;;2.50;;
74465;SDS011;62916;50.044;15.938;2023-03-01T15:19:55;3.60;;;2.40;;
74465;SDS011;62916;50.044;15.938;2023-03-01T15:22:26;3.10;;;2.40;;
74465;SDS011;62916;50.044;15.938;2023-03-01T15:24:58;3.70;;;2.90;;
74465;SDS011;62916;50.044;15.938;2023-03-01T15:27:29;2.70;;;2.10;;
74465;SDS011;62916;50.044;15.938;2023-03-01T15:30:01;3.70;;;2.40;;
74465;SDS011;62916;50.044;15.938;2023-03-01T15:32:34;3.20;;;2.50;;
74465;SDS011;62916;50.044;15.938;2023-03-01T15:40:57;3.50;;;2.10;;
74465;SDS011;62916;50.044;15.938;2023-03-01T15:43:39;4.40;;;2.30;;
74465;SDS011;62916;50.044;15.938;2023-03-01T15:46:18;3.40;;;2.70;;
74465;SDS011;62916;50.044;15.938;2023-03-01T15:48:54;3.70;;;2.30;;
74465;SDS011;62916;50.044;15.938;2023-03-01T15:51:31;3.50;;;2.30;;
74465;SDS011;62916;50.044;15.938;2023-03-01T15:54:05;3.40;;;2.50;;
74465;SDS011;62916;50.044;15.938;2023-03-01T15:56:50;3.30;;;2.30;;
74465;SDS011;62916;50.044;15.938;2023-03-01T15:59:21;3.00;;;2.30;;
74465;SDS011;62916;50.044;15.938;2023-03-01T16:01:52;3.20;;;2.40;;
74465;SDS011;62916;50.044;15.938;2023-03-01T16:04:23;3.00;;;2.40;;
74465;SDS011;62916;50.044;15.938;2023-03-01T16:06:54;4.20;;;2.90;;
74465;SDS011;62916;50.044;15.938;2023-03-01T16:09:26;13.00;;;2.90;;